Flight Track Log - Related Links

Times and Time Zones

All times are in EDT time to prevent confusion due to time zone crossing. See the ASH2834 flight status page for this flight to view local times or setup timezone preferences in your user account.

Time Position Orientation Groundspeed Altitude Reporting Facility
EDT Latitude Longitude Course Direction KTS MPH feet Rate Location/Type
Sun 01:17:58 AM 33.4333 -112.0333 259° West 168 193 2,100  Level Phoenix TRACON
Sun 01:18:17 AM 33.4317 -112.0433 259° West 166 191 2,500 1,800 Climbing Albuquerque Center
Sun 01:19:18 AM 33.4114 -112.1003 247° West 185 213 4,500 2,033 Climbing Albuquerque Center
Sun 01:20:18 AM 33.3489 -112.1247 198° South 279 321 6,600 2,650 Climbing Albuquerque Center
Sun 01:21:18 AM 33.2756 -112.0878 157° South 287 330 9,800 2,678 Climbing Albuquerque Center
Sun 01:22:19 AM 33.1942 -112.0503 159° South 314 361 12,000 2,479 Climbing Albuquerque Center
Sun 01:23:19 AM 33.1061 -112.0089 159° South 340 391 14,800 2,400 Climbing Albuquerque Center
Sun 01:24:19 AM 33.0156 -111.9664 159° South 348 400 16,800 992 Climbing Albuquerque Center
Sun 01:25:20 AM 32.9231 -111.9242 159° South 355 409 16,800  Level Albuquerque Center
Sun 01:26:20 AM 32.8233 -111.8544 150° Southeast 346 398 16,800  Level Albuquerque Center
Sun 01:27:20 AM 32.7442 -111.7883 145° Southeast 349 402 16,800 132 Level Albuquerque Center
Sun 01:27:51 AM 32.6994 -111.7547 148° Southeast 350 403 17,000  Climbing Albuquerque Center
Sun 01:28:21 AM 32.6631 -111.7233 144° Southeast 352 405 16,800  Descending Albuquerque Center
Sun 01:28:39 AM 32.6364 -111.7031 147° Southeast 352 405 17,000  Climbing Albuquerque Center
Sun 01:29:21 AM 32.5822 -111.6567 144° Southeast 354 407 16,800 -689 Descending Albuquerque Center
Sun 01:29:40 AM 32.5553 -111.6358 147° Southeast 354 407 16,300 -1,500 Descending Albuquerque Center
Sun 01:30:21 AM 32.5181 -111.5764 127° Southeast 343 395 15,300 -1,500 Descending Albuquerque Center
Sun 01:30:40 AM 32.5000 -111.5469 126° Southeast 335 386 14,800 -1,500 Descending Albuquerque Center
Sun 01:31:21 AM 32.4683 -111.4869 122° Southeast 328 377 13,800 -1,574 Descending Albuquerque Center
Sun 01:31:41 AM 32.4514 -111.4614 128° Southeast 317 365 13,200 -1,672 Descending Albuquerque Center
Sun 01:32:22 AM 32.4211 -111.4081 124° Southeast 306 352 12,100 -1,672 Descending Albuquerque Center
Sun 01:32:42 AM 32.4064 -111.3825 124° Southeast 295 339 11,500 -1,700 Descending Albuquerque Center
Sun 01:33:22 AM 32.3775 -111.3308 123° Southeast 289 333 10,400 -1,700 Descending Albuquerque Center
Sun 01:33:42 AM 32.3589 -111.3019 127° Southeast 280 322 9,800 -1,700 Descending Albuquerque Center
Sun 01:34:22 AM 32.3350 -111.2581 123° Southeast 275 316 8,700 -1,672 Descending Albuquerque Center
Sun 01:34:43 AM 32.3175 -111.2322 129° Southeast 263 303 8,100 -1,672 Descending Albuquerque Center
Sun 01:35:23 AM 32.2983 -111.1933 120° Southeast 249 287 7,000 -1,672 Descending Albuquerque Center
Sun 01:35:44 AM 32.2822 -111.1711 131° Southeast 232 267 6,400 -1,100 Descending Albuquerque Center
Sun 01:36:23 AM 32.2639 -111.1306 118° Southeast 237 273 5,900 -1,000 Descending Albuquerque Center
Sun 01:36:44 AM 32.2467 -111.1103 135° Southeast 225 259 5,400 -900 Descending Albuquerque Center
Sun 01:37:23 AM 32.2292 -111.0722 119° Southeast 228 262 5,000 -295 Descending Albuquerque Center
Sun 01:37:45 AM 32.2144 -111.0533 133° Southeast 212 244 5,100 -590 Climbing Albuquerque Center
Sun 01:38:24 AM 32.1950 -111.0219 126° Southeast 216 249 4,400 -1,000 Descending Albuquerque Center
Sun 01:38:45 AM 32.1786 -111.0128 155° Southeast 184 212 4,100 -700 Descending Albuquerque Center
Sun 01:39:24 AM 32.1575 -110.9756 124° Southeast 203 234 3,700 -615 Descending Albuquerque Center

Login

Don't have an account? Register now (free) for customized features, flight alerts, and more!